»·PEaware :: N529B KDLO-KEMT

N529B :: KDLO-KEMT

FLIGHT INFORMATION

Flight Status: Arrived
Operator: Privately registered:
United States
More flights under this callsign
Pilot: Kim B. (19519)
Aircraft: Unknown
(B29)
More flights by this aircraft type
Origin: KDLO Delano Mun
United States
Destination: KEMT El Monte
United States
More flights between these airports :: More routes between these airports
Route: +TTE V459 DARTS
File this flight plan on PilotEdge
Remarks:
Altitude:
(Current/Filed)
9,000ft
Speed:
(Current/Filed)
170kts
Departed: 23-Sep-18 12:04 PM
Arrived: 23-Sep-18 12:52 PM
Distance/Time
Traveled:
116nm/0:48
Distance/Time
To Go:
Arrived

Flight Plot

Page will automatically refresh every two minutes.

Flight plan parsing failed; only flown route is shown


Map Options




Map Legend


Flown Route
Filed Route
Departure Airport
Arrival Airport
Navaid (VOR, NDB)
Fix

Horizontal Profiles

Position Reports

Time Latitude Longitude Heading Altitude Ground
Speed
23-Sep-18 11:56 35.746178 -119.239283 69 322ft 0kts
23-Sep-18 11:57 35.746178 -119.239283 69 322ft 0kts
23-Sep-18 11:58 35.746178 -119.239283 69 322ft 0kts
23-Sep-18 11:59 35.746178 -119.239283 69 322ft 0kts
23-Sep-18 12:00 35.746178 -119.239283 69 322ft 0kts
23-Sep-18 12:01 35.746178 -119.239283 69 322ft 0kts
23-Sep-18 12:02 35.746178 -119.239283 69 322ft 0kts
23-Sep-18 12:03 35.743401 -119.237201 153 322ft 26kts
23-Sep-18 12:04 35.738603 -119.234002 114 322ft 2kts
23-Sep-18 12:05 35.738863 -119.233267 338 322ft 0kts
23-Sep-18 12:06 35.761140 -119.244181 335 556ft 129kts
23-Sep-18 12:07 35.798742 -119.234074 53 1351ft 170kts
23-Sep-18 12:08 35.795219 -119.175212 129 2284ft 197kts
23-Sep-18 12:09 35.795915 -119.113775 51 3223ft 214kts
23-Sep-18 12:10 35.785635 -119.047639 130 4102ft 210kts
23-Sep-18 12:11 35.750125 -118.994523 130 4941ft 192kts
23-Sep-18 12:12 35.714821 -118.951028 160 5786ft 170kts
23-Sep-18 12:13 35.672465 -118.933232 164 6627ft 155kts
23-Sep-18 12:14 35.631459 -118.917889 165 7520ft 153kts
23-Sep-18 12:15 35.590645 -118.902979 166 8327ft 156kts
23-Sep-18 12:16 35.548040 -118.887502 166 9073ft 164kts
23-Sep-18 12:17 35.497279 -118.869163 165 9080ft 213kts
23-Sep-18 12:18 35.438197 -118.847747 165 9070ft 229kts
23-Sep-18 12:19 35.375768 -118.825157 165 9066ft 237kts
23-Sep-18 12:20 35.312499 -118.802298 165 9066ft 238kts
23-Sep-18 12:21 35.249039 -118.779408 165 9075ft 238kts
23-Sep-18 12:22 35.185414 -118.756496 165 9092ft 238kts
23-Sep-18 12:23 35.122000 -118.733693 166 9145ft 237kts
23-Sep-18 12:24 35.058732 -118.710992 166 9188ft 238kts
23-Sep-18 12:25 34.995082 -118.688175 166 9205ft 239kts
23-Sep-18 12:26 34.931149 -118.665323 166 9173ft 241kts
23-Sep-18 12:27 34.867193 -118.642503 166 9171ft 239kts
23-Sep-18 12:28 34.803974 -118.619958 165 9145ft 235kts
23-Sep-18 12:29 34.743163 -118.598312 165 9116ft 230kts
23-Sep-18 12:30 34.682862 -118.576762 161 9094ft 227kts
23-Sep-18 12:31 34.639707 -118.521923 129 9092ft 227kts
23-Sep-18 12:32 34.590501 -118.482832 176 9100ft 217kts
23-Sep-18 12:33 34.532856 -118.463363 159 9090ft 215kts
23-Sep-18 12:34 34.477661 -118.435722 157 9085ft 214kts
23-Sep-18 12:35 34.423444 -118.407719 156 9087ft 212kts
23-Sep-18 12:36 34.370256 -118.380159 156 9084ft 202kts
23-Sep-18 12:37 34.319936 -118.354121 156 8976ft 197kts
23-Sep-18 12:38 34.277444 -118.332212 157 7960ft 208kts
23-Sep-18 12:39 34.214548 -118.299770 156 6288ft 215kts
23-Sep-18 12:40 34.172442 -118.278063 156 6121ft 176kts
23-Sep-18 12:41 34.126141 -118.254138 155 6123ft 138kts
23-Sep-18 12:42 34.090359 -118.236510 157 6143ft 143kts
23-Sep-18 12:43 34.058739 -118.221922 157 6140ft 149kts
23-Sep-18 12:44 34.059879 -118.182778 49 6143ft 151kts
23-Sep-18 12:45 34.088361 -118.144189 64 6101ft 159kts
23-Sep-18 12:46 34.109766 -118.088087 65 4939ft 200kts
23-Sep-18 12:47 34.132713 -118.023604 65 3730ft 216kts
23-Sep-18 12:48 34.133333 -117.957245 138 3066ft 195kts
23-Sep-18 12:49 34.084585 -117.948792 181 2918ft 167kts
23-Sep-18 12:50 34.061008 -117.978422 303 2133ft 174kts
23-Sep-18 12:51 34.094872 -118.013409 16 1573ft 157kts
23-Sep-18 12:52 34.121049 -118.007600 231 1152ft 121kts
23-Sep-18 12:53 34.092696 -118.031094 204 439ft 132kts
23-Sep-18 12:54 34.077719 -118.038353 208 285ft 0kts
23-Sep-18 12:55 34.077719 -118.038353 208 285ft 0kts
23-Sep-18 12:56 34.077719 -118.038353 208 285ft 0kts
23-Sep-18 12:57 34.077719 -118.038353 208 285ft 0kts
23-Sep-18 12:58 34.086004 -118.033332 25 300ft 0kts
23-Sep-18 12:59 34.086004 -118.033332 25 300ft 0kts
23-Sep-18 13:00 34.086004 -118.033332 25 300ft 0kts
23-Sep-18 13:01 34.086004 -118.033332 25 300ft 0kts
23-Sep-18 13:02 34.086004 -118.033332 25 300ft 0kts
23-Sep-18 13:03 34.086004 -118.033332 25 300ft 0kts
23-Sep-18 13:04 34.086004 -118.033332 25 300ft 0kts
23-Sep-18 13:05 34.086004 -118.033332 25 300ft 0kts
23-Sep-18 13:06 34.086004 -118.033332 25 300ft 0kts
23-Sep-18 13:07 34.086004 -118.033332 25 300ft 0kts
23-Sep-18 13:08 34.086004 -118.033332 25 300ft 0kts
23-Sep-18 13:09 34.086004 -118.033332 25 300ft 0kts

Navigation Log

Ident Type
Flight plan parsing failed, navigation log unavailable